createdAt,value
2018-11-03T00:02:17.832Z,17.93
2018-11-03T00:12:22.486Z,18.03
2018-11-03T00:22:27.049Z,18.53
2018-11-03T00:32:31.849Z,18.03
2018-11-03T00:42:36.426Z,16.43
2018-11-03T00:52:41.237Z,16.63
2018-11-03T01:02:46.954Z,17.90
2018-11-03T01:12:51.434Z,16.23
2018-11-03T01:22:56.275Z,16.87
2018-11-03T01:33:01.022Z,16.70
2018-11-03T01:43:05.906Z,18.20
2018-11-03T01:53:10.454Z,18.03
2018-11-03T02:03:15.049Z,17.43
2018-11-03T02:13:19.708Z,15.97
2018-11-03T02:23:24.201Z,16.57
2018-11-03T02:33:28.879Z,16.93
2018-11-03T02:43:33.308Z,17.03
2018-11-03T02:53:37.908Z,16.57
2018-11-03T03:03:42.568Z,17.07
2018-11-03T03:13:47.297Z,16.67
2018-11-03T03:23:51.808Z,14.37
2018-11-03T03:33:56.283Z,14.67
2018-11-03T03:44:00.877Z,15.30
2018-11-03T03:54:05.627Z,14.83
2018-11-03T04:04:10.078Z,12.47
2018-11-03T04:14:14.591Z,13.80
2018-11-03T04:24:19.394Z,14.13
2018-11-03T04:34:23.965Z,13.83
2018-11-03T04:44:28.489Z,14.17
2018-11-03T04:54:32.962Z,13.37
2018-11-03T05:04:37.430Z,14.57
2018-11-03T05:14:42.019Z,13.67
2018-11-03T05:24:46.702Z,14.10
2018-11-03T05:34:51.160Z,13.73
2018-11-03T05:44:59.114Z,13.93
2018-11-03T05:55:03.791Z,12.77
2018-11-03T06:05:08.354Z,12.70
2018-11-03T06:15:13.302Z,15.13
2018-11-03T06:25:18.362Z,13.50
2018-11-03T06:35:22.963Z,14.10
2018-11-03T06:45:27.576Z,14.27
2018-11-03T06:55:32.147Z,15.07
2018-11-03T07:05:36.848Z,16.97
2018-11-03T07:15:41.218Z,17.63
2018-11-03T07:25:46.738Z,16.10
2018-11-03T07:35:51.362Z,17.40
2018-11-03T07:45:55.930Z,16.07
2018-11-03T07:56:00.627Z,16.23
2018-11-03T08:06:05.162Z,16.00
2018-11-03T08:16:09.664Z,17.37
2018-11-03T08:26:14.218Z,16.60
2018-11-03T08:36:19.118Z,15.97
2018-11-03T08:46:23.694Z,16.70
2018-11-03T08:56:28.247Z,14.67
2018-11-03T09:06:32.859Z,13.83
2018-11-03T09:16:37.394Z,13.83
2018-11-03T09:26:42.042Z,13.97
2018-11-03T09:36:46.596Z,13.50
2018-11-03T09:46:51.221Z,14.73
2018-11-03T09:56:55.738Z,14.50
2018-11-03T10:07:00.263Z,13.33
2018-11-03T10:17:05.026Z,14.63
2018-11-03T10:27:09.389Z,14.40
2018-11-03T10:37:13.920Z,15.20
2018-11-03T10:47:18.250Z,14.03
2018-11-03T10:57:22.630Z,13.33
2018-11-03T11:07:32.141Z,14.23
2018-11-03T11:17:36.458Z,21.20
2018-11-03T11:27:40.843Z,14.27
2018-11-03T11:37:45.129Z,16.17
2018-11-03T11:47:49.449Z,12.03
2018-11-03T11:57:53.746Z,11.90
2018-11-03T12:07:58.940Z,11.70
2018-11-03T12:18:03.264Z,12.23
2018-11-03T12:28:07.589Z,12.10
2018-11-03T12:38:11.881Z,11.77
2018-11-03T12:48:16.310Z,17.60
2018-11-03T12:58:20.567Z,13.40
2018-11-03T13:08:24.899Z,12.83
2018-11-03T13:18:29.404Z,13.73
2018-11-03T13:28:33.887Z,13.43
2018-11-03T13:38:38.452Z,12.17
2018-11-03T13:48:43.169Z,11.90
2018-11-03T13:58:47.798Z,12.23
2018-11-03T14:08:52.594Z,10.43
2018-11-03T14:18:57.383Z,10.03
2018-11-03T14:29:02.188Z,9.60
2018-11-03T14:39:08.382Z,9.47
2018-11-03T14:49:13.158Z,9.50
2018-11-03T14:59:17.771Z,9.90
2018-11-03T15:09:22.269Z,10.00
2018-11-03T15:19:26.943Z,15.30
2018-11-03T15:29:31.640Z,12.53
2018-11-03T15:39:36.322Z,13.13
2018-11-03T15:49:41.034Z,15.07
2018-11-03T15:59:45.571Z,14.90
2018-11-03T16:09:49.918Z,16.13
2018-11-03T16:19:54.522Z,18.87
2018-11-03T16:29:59.181Z,17.57
2018-11-03T16:40:15.583Z,20.03
2018-11-03T16:50:19.879Z,20.27
2018-11-03T17:00:24.248Z,17.87
2018-11-03T17:10:28.550Z,18.67
2018-11-03T17:20:32.910Z,18.23
2018-11-03T17:30:37.227Z,17.00
2018-11-03T17:40:41.546Z,22.27
2018-11-03T17:50:45.959Z,16.57
2018-11-03T18:00:50.424Z,19.10
2018-11-03T18:10:54.654Z,17.63
2018-11-03T18:20:58.980Z,16.43
2018-11-03T18:31:03.382Z,17.50
2018-11-03T18:41:07.683Z,14.00
2018-11-03T18:51:12.016Z,15.03
2018-11-03T19:01:16.378Z,16.13
2018-11-03T19:11:20.647Z,14.13
2018-11-03T19:21:24.978Z,14.33
2018-11-03T19:31:29.352Z,12.60
2018-11-03T19:41:33.728Z,15.67
2018-11-03T19:51:38.568Z,13.77
2018-11-03T20:01:42.912Z,14.93
2018-11-03T20:11:47.650Z,14.30
2018-11-03T20:21:52.328Z,16.13
2018-11-03T20:31:56.835Z,14.67
2018-11-03T20:42:01.324Z,14.27
2018-11-03T20:52:06.352Z,14.60
2018-11-03T21:02:11.092Z,15.47
2018-11-03T21:12:15.705Z,15.00
2018-11-03T21:22:20.274Z,13.23
2018-11-03T21:32:25.388Z,13.63
2018-11-03T21:42:30.078Z,13.47
2018-11-03T21:52:34.675Z,13.73
2018-11-03T22:02:39.166Z,13.10
2018-11-03T22:12:44.099Z,13.03
2018-11-03T22:22:48.602Z,12.67
2018-11-03T22:32:53.316Z,12.27
2018-11-03T22:42:57.913Z,12.60
2018-11-03T22:53:02.591Z,11.50
2018-11-03T23:03:07.775Z,10.90
2018-11-03T23:13:12.353Z,11.27
2018-11-03T23:23:16.671Z,13.37
2018-11-03T23:33:22.086Z,12.90
2018-11-03T23:43:26.784Z,12.33
2018-11-03T23:53:31.238Z,13.23
